createdAt,value
2018-07-03T00:02:08.843Z,1.90
2018-07-03T00:04:44.483Z,1.92
2018-07-03T00:07:20.053Z,2.15
2018-07-03T00:09:55.388Z,2.12
2018-07-03T00:12:30.810Z,1.75
2018-07-03T00:15:07.006Z,1.70
2018-07-03T00:17:42.627Z,2.15
2018-07-03T00:20:18.577Z,1.92
2018-07-03T00:22:54.132Z,1.87
2018-07-03T00:25:29.542Z,1.85
2018-07-03T00:28:05.359Z,2.20
2018-07-03T00:30:41.205Z,2.50
2018-07-03T00:33:16.830Z,2.02
2018-07-03T00:35:52.250Z,2.50
2018-07-03T00:38:28.135Z,1.90
2018-07-03T00:41:03.739Z,2.25
2018-07-03T00:43:39.121Z,2.42
2018-07-03T00:46:14.565Z,2.10
2018-07-03T00:48:50.109Z,2.20
2018-07-03T00:51:25.337Z,2.40
2018-07-03T00:54:00.907Z,2.40
2018-07-03T00:56:36.406Z,2.40
2018-07-03T00:59:11.899Z,2.10
2018-07-03T01:01:47.378Z,2.42
2018-07-03T01:04:22.994Z,2.33
2018-07-03T01:06:58.500Z,2.10
2018-07-03T01:09:33.983Z,2.50
2018-07-03T01:12:09.582Z,2.15
2018-07-03T01:14:45.177Z,1.90
2018-07-03T01:17:20.666Z,2.40
2018-07-03T01:19:56.070Z,2.10
2018-07-03T01:22:31.413Z,2.40
2018-07-03T01:25:07.070Z,2.27
2018-07-03T01:27:42.369Z,2.50
2018-07-03T01:30:17.954Z,2.75
2018-07-03T01:32:53.337Z,2.77
2018-07-03T01:35:28.950Z,2.65
2018-07-03T01:38:04.204Z,2.10
2018-07-03T01:40:39.729Z,2.40
2018-07-03T01:43:14.989Z,2.40
2018-07-03T01:45:50.625Z,2.60
2018-07-03T01:48:26.130Z,2.12
2018-07-03T01:51:01.513Z,2.02
2018-07-03T01:53:36.993Z,2.10
2018-07-03T01:56:12.506Z,2.37
2018-07-03T01:58:47.697Z,2.50
2018-07-03T02:01:23.161Z,2.17
2018-07-03T03:03:15.649Z,2.70
2018-07-03T03:05:51.603Z,2.35
2018-07-03T03:08:27.435Z,2.42
2018-07-03T03:11:03.039Z,3.10
2018-07-03T03:13:38.286Z,2.55
2018-07-03T03:16:15.541Z,2.47
2018-07-03T03:18:51.165Z,2.60
2018-07-03T03:21:26.758Z,2.95
2018-07-03T03:24:02.006Z,2.95
2018-07-03T03:26:38.341Z,2.90
2018-07-03T03:29:13.752Z,2.67
2018-07-03T03:31:49.231Z,3.10
2018-07-03T03:34:24.686Z,2.98
2018-07-03T03:37:00.226Z,2.72
2018-07-03T03:39:35.610Z,3.95
2018-07-03T03:42:11.124Z,3.40
2018-07-03T03:44:46.858Z,3.40
2018-07-03T03:47:22.309Z,3.83
2018-07-03T03:49:58.245Z,4.40
2018-07-03T03:52:33.713Z,4.05
2018-07-03T03:55:09.221Z,4.62
2018-07-03T03:57:44.514Z,4.78
2018-07-03T04:00:19.886Z,4.85
2018-07-03T04:02:55.398Z,4.83
2018-07-03T04:05:31.130Z,5.58
2018-07-03T04:08:07.000Z,5.78
2018-07-03T04:10:42.483Z,5.70
2018-07-03T04:13:17.998Z,6.05
2018-07-03T04:15:53.459Z,7.08
2018-07-03T04:18:35.235Z,6.55
2018-07-03T04:21:10.575Z,7.70
2018-07-03T04:23:46.132Z,7.35
2018-07-03T04:26:21.549Z,6.80
2018-07-03T04:28:57.038Z,7.87
2018-07-03T04:31:32.598Z,7.25
2018-07-03T04:34:08.158Z,6.42
2018-07-03T04:36:43.473Z,5.90
2018-07-03T04:39:19.201Z,6.00
2018-07-03T04:41:54.694Z,6.33
2018-07-03T04:44:30.487Z,6.20
2018-07-03T04:47:05.991Z,5.70
2018-07-03T04:49:41.677Z,5.37
2018-07-03T04:52:17.071Z,6.03
2018-07-03T04:54:52.662Z,5.00
2018-07-03T04:57:27.897Z,4.33
2018-07-03T05:00:03.582Z,4.30
2018-07-03T05:02:38.894Z,4.50
2018-07-03T05:05:14.886Z,4.17
2018-07-03T05:07:50.200Z,3.57
2018-07-03T05:10:25.835Z,3.70
2018-07-03T05:13:01.277Z,3.67
2018-07-03T05:15:36.657Z,3.17
2018-07-03T05:18:12.106Z,3.53
2018-07-03T05:20:47.650Z,3.40
2018-07-03T05:23:23.087Z,3.40
2018-07-03T05:25:58.645Z,2.37
2018-07-03T05:28:34.041Z,3.00
2018-07-03T05:31:09.547Z,2.80
2018-07-03T05:33:44.854Z,2.80
2018-07-03T05:36:20.425Z,2.40
2018-07-03T05:38:55.869Z,2.87
2018-07-03T05:41:31.338Z,3.10
2018-07-03T05:44:06.758Z,2.80
2018-07-03T05:46:42.099Z,2.80
2018-07-03T05:49:17.474Z,3.00
2018-07-03T05:51:52.896Z,2.63
2018-07-03T05:54:28.442Z,2.70
2018-07-03T05:57:04.098Z,4.60
2018-07-03T05:59:39.602Z,2.80
2018-07-03T06:02:15.185Z,3.70
2018-07-03T06:04:50.748Z,2.53
2018-07-03T06:07:26.106Z,3.10
2018-07-03T06:10:01.361Z,3.20
2018-07-03T06:12:37.070Z,2.60
2018-07-03T06:15:12.270Z,2.50
2018-07-03T06:17:47.863Z,3.00
2018-07-03T06:20:23.321Z,2.70
2018-07-03T06:22:58.850Z,3.20
2018-07-03T06:25:34.226Z,2.90
2018-07-03T06:28:09.766Z,3.10
2018-07-03T06:39:55.799Z,3.20
2018-07-03T06:42:31.046Z,2.70
2018-07-03T06:45:06.794Z,2.90
2018-07-03T06:47:42.065Z,2.20
2018-07-03T06:50:17.689Z,2.80
2018-07-03T06:52:53.184Z,2.27
2018-07-03T06:55:28.774Z,2.00
2018-07-03T06:58:04.221Z,3.60
2018-07-03T07:00:39.875Z,2.73
2018-07-03T07:03:15.382Z,2.30
2018-07-03T07:05:51.061Z,2.30
2018-07-03T07:08:26.435Z,2.57
2018-07-03T07:11:02.158Z,2.40
2018-07-03T07:13:37.338Z,1.70
2018-07-03T07:16:13.053Z,1.93
2018-07-03T07:18:48.461Z,2.10
2018-07-03T07:21:23.838Z,1.60
2018-07-03T07:23:59.207Z,1.70
2018-07-03T07:26:34.725Z,1.60
2018-07-03T07:29:10.306Z,2.60
2018-07-03T07:31:45.850Z,1.50
2018-07-03T07:34:21.250Z,2.90
2018-07-03T07:36:57.325Z,2.30
2018-07-03T07:39:32.761Z,1.63
2018-07-03T07:42:08.322Z,1.60
2018-07-03T07:44:43.588Z,1.70
2018-07-03T07:47:19.209Z,1.47
2018-07-03T07:49:54.692Z,1.40
2018-07-03T07:52:30.206Z,2.00
2018-07-03T07:55:05.452Z,1.53
2018-07-03T07:57:40.802Z,1.70
2018-07-03T08:00:16.324Z,1.53
2018-07-03T08:02:51.747Z,1.60
2018-07-03T08:05:27.478Z,1.47
2018-07-03T08:08:03.185Z,1.83
2018-07-03T08:10:39.066Z,1.60
2018-07-03T08:13:14.927Z,1.43
2018-07-03T08:15:50.392Z,2.20
2018-07-03T08:18:25.985Z,1.53
2018-07-03T08:21:02.046Z,1.90
2018-07-03T08:23:37.695Z,1.60
2018-07-03T08:26:13.194Z,2.40
2018-07-03T08:28:48.689Z,2.23
2018-07-03T08:31:24.046Z,2.00
2018-07-03T08:33:59.595Z,1.80
2018-07-03T08:36:35.014Z,1.67
2018-07-03T08:39:12.028Z,1.50
2018-07-03T08:41:47.368Z,1.40
2018-07-03T08:44:22.920Z,1.40
2018-07-03T08:46:58.378Z,1.70
2018-07-03T08:49:33.833Z,1.50
2018-07-03T08:52:09.016Z,1.53
2018-07-03T08:54:44.378Z,1.40
2018-07-03T08:57:19.885Z,1.57
2018-07-03T08:59:55.468Z,4.00
2018-07-03T09:02:30.804Z,2.60
2018-07-03T09:05:06.559Z,6.70
2018-07-03T09:07:41.870Z,4.17
2018-07-03T09:10:17.451Z,1.43
2018-07-03T09:12:52.821Z,2.03
2018-07-03T09:15:28.241Z,1.40
2018-07-03T09:18:03.576Z,1.40
2018-07-03T09:20:39.126Z,1.30
2018-07-03T09:23:14.350Z,2.00
2018-07-03T09:25:49.541Z,1.37
2018-07-03T09:28:25.012Z,1.40
2018-07-03T09:31:00.609Z,3.37
2018-07-03T09:33:36.211Z,3.07
2018-07-03T09:36:11.699Z,1.90
2018-07-03T09:38:47.435Z,3.23
2018-07-03T09:41:22.997Z,2.20
2018-07-03T09:43:58.453Z,2.30
2018-07-03T09:46:34.024Z,2.53
2018-07-03T09:49:09.357Z,1.77
2018-07-03T09:51:44.977Z,2.80
2018-07-03T09:54:20.385Z,1.60
2018-07-03T09:56:55.953Z,2.03
2018-07-03T09:59:31.389Z,4.20
2018-07-03T10:02:07.686Z,4.60
2018-07-03T10:04:43.359Z,5.47
2018-07-03T10:07:18.984Z,1.60
2018-07-03T10:09:54.342Z,1.50
2018-07-03T10:12:29.769Z,1.90
2018-07-03T10:15:05.797Z,2.00
2018-07-03T10:17:41.377Z,1.27
2018-07-03T10:20:16.821Z,1.30
2018-07-03T10:22:52.373Z,1.37
2018-07-03T10:25:27.813Z,1.50
2018-07-03T10:28:03.173Z,1.43
2018-07-03T10:30:38.526Z,1.37
2018-07-03T10:33:14.142Z,1.40
2018-07-03T10:35:49.314Z,1.40
2018-07-03T10:38:24.834Z,1.40
2018-07-03T10:41:00.352Z,1.50
2018-07-03T10:43:36.033Z,1.20
2018-07-03T10:46:11.367Z,1.30
2018-07-03T10:48:46.973Z,1.70
2018-07-03T10:51:22.423Z,1.47
2018-07-03T10:53:57.913Z,1.60
2018-07-03T10:56:33.405Z,1.63
2018-07-03T10:59:09.316Z,1.60
2018-07-03T11:01:44.701Z,1.57
2018-07-03T11:04:20.309Z,3.37
2018-07-03T11:06:56.125Z,3.50
2018-07-03T11:09:31.813Z,2.17
2018-07-03T11:12:07.734Z,3.57
2018-07-03T11:14:43.330Z,2.13
2018-07-03T11:17:19.365Z,2.20
2018-07-03T11:19:55.322Z,1.70
2018-07-03T11:22:30.654Z,1.60
2018-07-03T11:25:06.335Z,1.80
2018-07-03T11:27:41.807Z,1.93
2018-07-03T11:30:17.330Z,3.40
2018-07-03T11:32:52.649Z,2.33
2018-07-03T11:35:28.109Z,3.70
2018-07-03T11:38:03.310Z,2.00
2018-07-03T11:40:38.930Z,3.20
2018-07-03T11:43:14.410Z,1.67
2018-07-03T11:45:49.978Z,3.17
2018-07-03T11:48:25.348Z,1.50
2018-07-03T11:51:00.880Z,1.33
2018-07-03T11:53:36.020Z,2.80
2018-07-03T11:56:12.381Z,1.40
2018-07-03T11:58:47.664Z,1.97
2018-07-03T12:01:23.187Z,2.00
2018-07-03T12:03:58.622Z,1.70
2018-07-03T12:06:34.473Z,1.90
2018-07-03T12:09:10.937Z,2.47
2018-07-03T12:11:46.808Z,3.20
2018-07-03T12:14:22.237Z,2.20
2018-07-03T12:16:57.394Z,2.00
2018-07-03T12:19:32.821Z,2.07
2018-07-03T12:22:08.178Z,1.80
2018-07-03T12:24:43.219Z,2.10
2018-07-03T12:27:18.870Z,2.40
2018-07-03T12:29:54.053Z,2.20
2018-07-03T12:32:29.542Z,3.50
2018-07-03T12:35:05.115Z,2.07
2018-07-03T12:37:40.743Z,2.57
2018-07-03T12:40:15.980Z,2.07
2018-07-03T12:42:51.535Z,2.27
2018-07-03T12:45:26.898Z,2.20
2018-07-03T12:48:02.422Z,2.10
2018-07-03T12:50:37.966Z,1.70
2018-07-03T12:53:13.528Z,1.77
2018-07-03T12:55:48.990Z,1.80
2018-07-03T12:58:24.605Z,1.77
2018-07-03T13:00:59.965Z,1.60
2018-07-03T13:03:35.593Z,2.30
2018-07-03T13:06:11.277Z,1.80
2018-07-03T13:08:47.027Z,1.87
2018-07-03T13:11:22.562Z,2.10
2018-07-03T13:13:58.089Z,2.50
2018-07-03T13:16:33.541Z,2.83
2018-07-03T13:19:08.963Z,1.97
2018-07-03T13:21:44.451Z,2.23
2018-07-03T13:24:19.910Z,2.83
2018-07-03T13:26:55.425Z,2.30
2018-07-03T13:29:30.693Z,1.83
2018-07-03T13:32:06.631Z,2.13
2018-07-03T13:34:41.881Z,5.10
2018-07-03T13:37:17.467Z,3.10
2018-07-03T13:39:52.574Z,1.87
2018-07-03T13:42:27.998Z,2.67
2018-07-03T13:45:03.420Z,2.20
2018-07-03T13:47:38.780Z,2.53
2018-07-03T13:50:14.022Z,1.80
2018-07-03T13:52:49.372Z,2.07
2018-07-03T13:55:24.627Z,3.73
2018-07-03T13:58:00.056Z,2.00
2018-07-03T14:00:35.511Z,2.00
2018-07-03T14:03:11.038Z,2.37
2018-07-03T14:05:46.589Z,2.10
2018-07-03T14:08:22.033Z,2.20
2018-07-03T14:10:57.278Z,2.10
2018-07-03T14:13:33.057Z,2.30
2018-07-03T14:16:08.518Z,2.37
2018-07-03T14:18:44.126Z,2.27
2018-07-03T14:21:19.569Z,1.87
2018-07-03T14:23:55.118Z,2.30
2018-07-03T14:26:30.966Z,2.30
2018-07-03T14:29:06.418Z,1.90
2018-07-03T14:31:41.906Z,1.90
2018-07-03T14:34:17.425Z,2.40
2018-07-03T14:36:53.161Z,2.60
2018-07-03T14:39:29.030Z,2.20
2018-07-03T14:42:04.525Z,2.30
2018-07-03T14:44:40.126Z,2.00
2018-07-03T14:47:15.605Z,2.00
2018-07-03T14:49:51.426Z,2.23
2018-07-03T14:52:26.913Z,2.83
2018-07-03T14:55:02.314Z,2.10
2018-07-03T14:57:37.791Z,2.70
2018-07-03T15:00:13.617Z,5.00
2018-07-03T15:02:49.145Z,7.90
2018-07-03T15:05:24.958Z,2.60
2018-07-03T15:08:00.314Z,2.10
2018-07-03T15:10:35.701Z,2.53
2018-07-03T15:13:11.161Z,2.13
2018-07-03T15:15:46.811Z,2.40
2018-07-03T15:18:22.269Z,3.40
2018-07-03T15:20:57.695Z,2.97
2018-07-03T15:23:33.277Z,3.00
2018-07-03T15:26:08.886Z,3.57
2018-07-03T15:28:44.085Z,2.50
2018-07-03T15:31:19.787Z,6.00
2018-07-03T15:33:55.157Z,3.00
2018-07-03T15:36:30.666Z,2.93
2018-07-03T15:39:10.874Z,2.90
2018-07-03T15:41:46.573Z,2.20
2018-07-03T15:44:38.927Z,3.17
2018-07-03T15:47:14.498Z,3.87
2018-07-03T15:49:50.133Z,4.10
2018-07-03T15:52:25.765Z,3.07
2018-07-03T15:55:01.252Z,2.73
2018-07-03T15:57:36.757Z,6.13
2018-07-03T16:00:14.857Z,9.27
2018-07-03T16:03:07.446Z,2.10
2018-07-03T16:06:05.363Z,1.90
2018-07-03T16:08:58.342Z,2.57
2018-07-03T16:11:33.649Z,3.00
2018-07-03T16:14:09.940Z,2.47
2018-07-03T16:16:45.371Z,4.40
2018-07-03T16:19:26.175Z,2.77
2018-07-03T16:22:01.517Z,2.63
2018-07-03T16:24:36.859Z,2.40
2018-07-03T16:27:12.112Z,2.83
2018-07-03T16:29:47.526Z,2.10
2018-07-03T16:32:22.580Z,2.37
2018-07-03T16:34:58.141Z,3.67
2018-07-03T16:37:33.650Z,3.50
2018-07-03T16:40:09.310Z,2.97
2018-07-03T16:42:44.690Z,2.07
2018-07-03T16:45:20.637Z,1.93
2018-07-03T16:47:55.997Z,2.10
2018-07-03T16:50:31.601Z,2.10
2018-07-03T16:53:06.828Z,2.37
2018-07-03T16:55:42.295Z,2.33
2018-07-03T16:58:17.725Z,2.10
2018-07-03T17:00:53.385Z,2.43
2018-07-03T17:03:28.857Z,2.20
2018-07-03T17:06:04.790Z,2.20
2018-07-03T17:08:40.325Z,3.03
2018-07-03T17:11:15.908Z,3.13
2018-07-03T17:13:51.271Z,2.33
2018-07-03T17:16:26.669Z,5.03
2018-07-03T17:19:07.229Z,2.90
2018-07-03T17:21:42.773Z,2.20
2018-07-03T17:24:18.138Z,2.10
2018-07-03T17:26:53.882Z,11.50
2018-07-03T17:29:29.222Z,2.77
2018-07-03T17:32:04.889Z,2.23
2018-07-03T17:34:40.235Z,4.23
2018-07-03T17:37:15.872Z,3.50
2018-07-03T17:40:08.389Z,2.90
2018-07-03T17:43:31.370Z,3.30
2018-07-03T17:46:09.074Z,7.90
2018-07-03T17:48:44.555Z,3.17
2018-07-03T17:51:19.850Z,3.93
2018-07-03T17:53:55.489Z,4.10
2018-07-03T17:56:30.873Z,6.53
2018-07-03T17:59:07.218Z,4.87
2018-07-03T18:01:42.549Z,2.90
2018-07-03T18:04:19.357Z,3.50
2018-07-03T18:06:54.795Z,5.13
2018-07-03T18:09:30.439Z,11.80
2018-07-03T18:12:05.698Z,8.60
2018-07-03T18:14:41.226Z,30.03
2018-07-03T18:17:16.691Z,7.50
2018-07-03T18:19:52.322Z,4.53
2018-07-03T18:22:27.857Z,6.30
2018-07-03T18:25:04.021Z,4.47
2018-07-03T18:27:39.529Z,4.90
2018-07-03T18:30:15.425Z,3.40
2018-07-03T18:32:50.609Z,3.10
2018-07-03T18:35:26.214Z,3.57
2018-07-03T18:38:01.737Z,3.57
2018-07-03T18:40:37.207Z,3.63
2018-07-03T18:43:13.051Z,3.70
2018-07-03T18:45:48.405Z,4.70
2018-07-03T18:48:23.933Z,3.73
2018-07-03T18:50:59.514Z,4.20
2018-07-03T18:53:34.957Z,4.30
2018-07-03T18:56:10.683Z,4.37
2018-07-03T18:58:46.019Z,3.97
2018-07-03T19:01:21.898Z,3.73
2018-07-03T19:03:57.365Z,4.10
2018-07-03T19:06:33.325Z,3.90
2018-07-03T19:09:09.146Z,3.70
2018-07-03T19:11:44.803Z,4.83
2018-07-03T19:14:20.280Z,5.60
2018-07-03T19:16:56.414Z,6.50
2018-07-03T19:19:31.872Z,7.80
2018-07-03T19:22:07.503Z,8.10
2018-07-03T19:24:42.833Z,4.97
2018-07-03T19:27:18.598Z,8.07
2018-07-03T19:29:54.087Z,4.80
2018-07-03T19:32:29.797Z,4.87
2018-07-03T19:35:05.445Z,7.00
2018-07-03T19:37:40.942Z,9.93
2018-07-03T19:40:16.426Z,7.50
2018-07-03T19:43:29.037Z,12.50
2018-07-03T19:46:05.121Z,5.60
2018-07-03T19:48:40.477Z,5.85
2018-07-03T19:51:15.905Z,5.78
2018-07-03T19:53:51.101Z,5.72
2018-07-03T19:56:26.611Z,5.58
2018-07-03T19:59:01.725Z,6.40
2018-07-03T20:01:37.381Z,6.10
2018-07-03T20:04:12.677Z,6.35
2018-07-03T20:06:48.382Z,6.30
2018-07-03T20:09:23.894Z,7.40
2018-07-03T20:11:59.666Z,8.30
2018-07-03T20:14:35.166Z,7.15
2018-07-03T20:17:10.865Z,9.45
2018-07-03T20:19:46.113Z,6.50
2018-07-03T20:22:21.666Z,7.83
2018-07-03T20:24:56.688Z,6.50
2018-07-03T20:27:32.353Z,6.70
2018-07-03T20:30:07.717Z,8.03
2018-07-03T20:32:43.434Z,9.63
2018-07-03T20:35:18.963Z,9.60
2018-07-03T20:37:56.691Z,6.37
2018-07-03T20:41:01.520Z,6.55
2018-07-03T20:43:39.192Z,6.00
2018-07-03T20:46:14.861Z,8.00
2018-07-03T20:48:50.420Z,8.85
2018-07-03T20:51:25.909Z,12.33
2018-07-03T20:54:01.517Z,7.30
2018-07-03T20:56:36.975Z,9.30
2018-07-03T20:59:12.510Z,11.60
2018-07-03T21:01:47.845Z,8.75
2018-07-03T21:04:23.340Z,9.10
2018-07-03T21:06:59.425Z,6.70
2018-07-03T21:09:35.054Z,9.98
2018-07-03T21:12:10.446Z,6.62
2018-07-03T21:14:45.986Z,7.20
2018-07-03T21:17:21.638Z,6.12
2018-07-03T21:19:56.978Z,14.58
2018-07-03T21:22:32.936Z,7.28
2018-07-03T21:25:08.150Z,7.87
2018-07-03T21:27:44.234Z,8.95
2018-07-03T21:30:26.568Z,17.92
2018-07-03T21:33:01.933Z,7.05
2018-07-03T21:35:38.153Z,6.50
2018-07-03T21:38:13.489Z,6.65
2018-07-03T21:40:48.939Z,7.20
2018-07-03T21:43:24.384Z,8.60
2018-07-03T21:45:59.828Z,7.08
2018-07-03T21:48:35.298Z,6.30
2018-07-03T21:51:10.712Z,12.35
2018-07-03T21:53:46.143Z,7.87
2018-07-03T21:56:21.739Z,7.40
2018-07-03T21:58:57.461Z,6.65
2018-07-03T22:01:32.965Z,6.70
2018-07-03T22:04:08.442Z,6.28
2018-07-03T22:06:43.666Z,6.47
2018-07-03T22:09:19.494Z,6.62
2018-07-03T22:11:54.890Z,7.15
2018-07-03T22:14:30.341Z,6.10
2018-07-03T22:17:06.289Z,6.50
2018-07-03T22:19:42.567Z,6.50
2018-07-03T22:22:17.625Z,7.15
2018-07-03T22:24:53.257Z,5.75
2018-07-03T22:27:28.716Z,6.40
2018-07-03T22:30:04.237Z,6.85
2018-07-03T22:32:39.621Z,6.08
2018-07-03T22:35:15.153Z,6.10
2018-07-03T22:37:50.655Z,5.58
2018-07-03T22:40:26.226Z,6.12
2018-07-03T22:43:01.697Z,5.87
2018-07-03T22:45:37.318Z,6.50
2018-07-03T22:48:13.062Z,6.55
2018-07-03T22:50:48.418Z,6.28
2018-07-03T22:53:23.901Z,5.75
2018-07-03T22:55:59.405Z,6.67
2018-07-03T22:58:34.722Z,6.08
2018-07-03T23:01:10.185Z,6.00
2018-07-03T23:03:45.610Z,6.40
2018-07-03T23:06:21.213Z,6.70
2018-07-03T23:08:56.554Z,7.05
2018-07-03T23:11:32.410Z,6.03
2018-07-03T23:14:07.681Z,5.85
2018-07-03T23:16:43.477Z,6.33
2018-07-03T23:19:18.773Z,6.92
2018-07-03T23:21:54.472Z,5.65
2018-07-03T23:24:29.881Z,6.22
2018-07-03T23:27:05.397Z,6.42
2018-07-03T23:29:40.922Z,6.92
2018-07-03T23:32:16.458Z,5.28
2018-07-03T23:34:51.516Z,6.75
2018-07-03T23:37:27.033Z,6.30
2018-07-03T23:40:02.361Z,6.30
2018-07-03T23:42:37.750Z,6.35
2018-07-03T23:45:12.981Z,6.37
2018-07-03T23:48:05.641Z,6.30
2018-07-03T23:50:58.230Z,6.03
2018-07-03T23:53:50.809Z,6.95
2018-07-03T23:56:43.487Z,5.92
2018-07-03T23:59:36.002Z,6.10
